Αρχική σελίδα
METAR-TAF:

METAR-TAF

Αεροδρόμια :

Αεροδρόμιο της Ρώμης-Φιουμιτσίνο

Ρώμη-Φιουμιτσίνο, Ιταλία

γεωγραφικό πλάτος: 41-48N, γεωγραφικό μήκος: 012-14E, υψόμετρο: 2 μ

Παρών καιρός

Η αναφορά έγινε 20 λεπτά πριν, στις 17:20 UTC
Άνεμος 10 kt από Β/BA
Θερμοκρασία 13°C
Υγρασία 54%
Πίεση 1019 hPa
Ορατότητα 10 χλμ και άνω
Λίγα νέφη σε ύψος 4000 πόδια

METAR: LIRF 161720Z 02010KT 9999 FEW040 13/04 Q1019 NOSIG

Χρόνος: 18:40 (17:40 UTC)

Πρόγνωση Καιρού

Η αναφορά έγινε 40 λεπτά πριν, στις 17:00 UTC
Η πρόγνωση ισχύει από τις 16 στις 18 UTC έως τις 17 στις 24 UTC
Άνεμος 12 kt από BA
Ορατότητα 10 χλμ και άνω
Διάσπαρτα νέφη σε ύψος 3000 πόδια
Προσωρινά
από 16 στις 18 UTC έως τις 16 στις 20 UTC
καταιγίδα, βροχή

TAF: LIRF 161700Z 1618/1724 04012KT 9999 SCT030 TEMPO 1618/1620 TSRA

Μετεωρολογικές αναφορές και προγνώσεις για περισσότερα από 4000 αεροδρόμια (δελτία METAR και TAF).

Οι διαθέσιμοι σταθμοί απεικονίζονται στο χάρτη με κίτρινες και κόκκινες κουκκίδες.

Μετακινήστε το ποντίκι πάνω από τις κουκκίδες για να δείτε το όνομα του σταθμού.

Στη συνέχεια, κάντε κλικ για να δείτε τις μετεωρολογικές αναφορές και τις προγνώσεις καιρού.

Για να αλλάξετε το χάρτη: κάντε κλικ στα πράσινα κουμπιά με τον μαύρο σταυρό για να ζουμάρετε, στο πράσινο κουμπί με την παύλα για να αφαιρέσετε το ζουμ ή στα πράσινα βέλη για να αντιπαραβάλλετε χάρτες.


METAR-TAF: